createdAt,value
2018-06-05T00:13:32.802Z,94.10
2018-06-05T00:18:36.768Z,94.60
2018-06-05T00:23:40.722Z,94.30
2018-06-05T00:28:44.691Z,95.30
2018-06-05T00:33:48.643Z,96.70
2018-06-05T00:38:54.152Z,95.70
2018-06-05T00:43:58.329Z,97.40
2018-06-05T00:49:03.010Z,96.60
2018-06-05T00:54:06.978Z,96.30
2018-06-05T00:59:10.965Z,95.70
2018-06-05T01:04:14.884Z,95.20
2018-06-05T01:09:18.850Z,95.10
2018-06-05T01:14:22.822Z,95.10
2018-06-05T01:19:26.781Z,95.00
2018-06-05T01:29:34.304Z,95.00
2018-06-05T01:34:38.276Z,95.10
2018-06-05T01:39:42.210Z,95.70
2018-06-05T01:44:46.195Z,97.40
2018-06-05T01:49:50.153Z,96.50
2018-06-05T01:54:54.119Z,95.40
2018-06-05T01:59:58.090Z,95.60
2018-06-05T02:05:02.070Z,95.80
2018-06-05T02:10:06.014Z,95.30
2018-06-05T02:15:09.946Z,95.00
2018-06-05T02:20:13.893Z,94.60
2018-06-05T02:25:17.936Z,94.40
2018-06-05T02:30:21.894Z,94.80
2018-06-05T02:35:26.675Z,95.00
2018-06-05T02:40:30.624Z,95.10
2018-06-05T02:45:34.627Z,95.30
2018-06-05T02:50:38.582Z,95.00
2018-06-05T02:55:42.567Z,95.50
2018-06-05T03:00:46.529Z,95.30
2018-06-05T03:05:50.690Z,95.10
2018-06-05T03:10:55.427Z,94.80
2018-06-05T03:15:59.383Z,94.70
2018-06-05T03:21:03.323Z,94.90
2018-06-05T03:26:07.279Z,94.90
2018-06-05T03:31:11.228Z,95.10
2018-06-05T03:41:18.797Z,95.30
2018-06-05T03:46:22.796Z,95.60
2018-06-05T03:56:30.400Z,96.00
2018-06-05T04:01:34.353Z,95.60
2018-06-05T04:06:38.325Z,95.90
2018-06-05T04:11:42.286Z,96.40
2018-06-05T04:16:46.234Z,96.00
2018-06-05T04:21:50.219Z,96.30
2018-06-05T04:26:54.158Z,96.30
2018-06-05T04:31:58.098Z,96.50
2018-06-05T04:37:02.044Z,96.60
2018-06-05T04:47:10.446Z,96.10
2018-06-05T04:52:14.395Z,96.00
2018-06-05T04:57:18.352Z,96.30
2018-06-05T05:02:22.302Z,96.30
2018-06-05T05:07:26.261Z,96.30
2018-06-05T05:12:30.195Z,96.10
2018-06-05T05:17:34.141Z,97.00
2018-06-05T05:22:38.098Z,96.90
2018-06-05T05:27:42.434Z,96.30
2018-06-05T05:32:46.371Z,96.70
2018-06-05T05:37:50.359Z,96.90
2018-06-05T05:47:57.961Z,96.00
2018-06-05T05:53:01.952Z,97.70
2018-06-05T05:58:05.892Z,97.30
2018-06-05T06:03:09.835Z,96.70
2018-06-05T06:08:13.815Z,95.80
2018-06-05T06:13:17.826Z,95.20
2018-06-05T06:23:25.414Z,95.10
2018-06-05T06:28:29.370Z,94.80
2018-06-05T06:33:33.377Z,94.90
2018-06-05T06:38:37.383Z,94.80
2018-06-05T06:43:42.087Z,94.60
2018-06-05T06:48:46.098Z,94.10
2018-06-05T06:58:53.693Z,94.10
2018-06-05T07:03:57.646Z,93.90
2018-06-05T07:09:01.671Z,94.00
2018-06-05T07:14:05.649Z,94.00
2018-06-05T07:19:09.634Z,93.80
2018-06-05T07:29:17.191Z,93.60
2018-06-05T07:34:21.162Z,93.10
2018-06-05T07:39:25.110Z,92.60
2018-06-05T07:49:33.020Z,92.70
2018-06-05T07:54:36.969Z,93.00
2018-06-05T07:59:40.922Z,92.60
2018-06-05T08:04:45.686Z,92.60
2018-06-05T08:09:49.650Z,92.80
2018-06-05T08:14:53.639Z,93.50
2018-06-05T08:19:57.598Z,93.80
2018-06-05T08:25:01.588Z,93.30
2018-06-05T08:30:05.563Z,92.90
2018-06-05T08:35:10.096Z,92.60
2018-06-05T08:40:14.134Z,92.90
2018-06-05T08:45:18.095Z,92.90
2018-06-05T08:50:22.190Z,92.70
2018-06-05T08:55:26.170Z,92.60
2018-06-05T09:00:30.119Z,92.40
2018-06-05T09:05:34.095Z,92.40
2018-06-05T09:10:38.046Z,92.90
2018-06-05T09:15:42.035Z,92.60
2018-06-05T09:20:45.994Z,92.30
2018-06-05T09:25:49.986Z,92.20
2018-06-05T09:30:53.926Z,91.80
2018-06-05T09:35:57.906Z,91.70
2018-06-05T09:41:01.889Z,91.60
2018-06-05T09:46:06.090Z,91.50
2018-06-05T09:56:15.781Z,91.30
2018-06-05T10:01:19.794Z,90.80
2018-06-05T10:06:23.771Z,90.90
2018-06-05T10:11:27.739Z,90.60
2018-06-05T10:16:31.685Z,90.30
2018-06-05T10:26:39.287Z,90.10
2018-06-05T10:31:44.341Z,90.00
2018-06-05T10:36:48.297Z,90.10
2018-06-05T10:41:52.291Z,89.60
2018-06-05T10:46:56.267Z,89.20
2018-06-05T10:52:00.281Z,88.90
2018-06-05T10:57:04.218Z,87.80
2018-06-05T11:02:08.168Z,86.60
2018-06-05T11:07:12.142Z,86.60
2018-06-05T11:17:19.702Z,85.30
2018-06-05T11:22:23.696Z,84.30
2018-06-05T11:27:27.646Z,83.30
2018-06-05T11:32:31.613Z,83.00
2018-06-05T11:37:35.567Z,83.40
2018-06-05T11:42:39.534Z,82.20
2018-06-05T11:47:43.499Z,81.90
2018-06-05T11:52:47.458Z,80.70
2018-06-05T11:57:51.436Z,80.00
2018-06-05T12:02:55.417Z,79.10
2018-06-05T12:07:59.453Z,78.10
2018-06-05T12:13:03.415Z,77.20
2018-06-05T12:18:07.399Z,77.20
2018-06-05T12:23:11.350Z,76.20
2018-06-05T12:28:15.311Z,74.60
2018-06-05T12:33:19.297Z,72.20
2018-06-05T12:38:23.270Z,71.40
2018-06-05T12:43:27.278Z,70.30
2018-06-05T12:48:31.230Z,70.70
2018-06-05T12:53:35.199Z,70.30
2018-06-05T12:58:39.157Z,70.40
2018-06-05T13:03:43.135Z,71.70
2018-06-05T13:08:47.147Z,70.50
2018-06-05T13:13:51.109Z,69.40
2018-06-05T13:18:55.091Z,68.70
2018-06-05T13:23:59.066Z,66.40
2018-06-05T13:34:06.679Z,62.80
2018-06-05T13:39:10.823Z,64.10
2018-06-05T13:44:14.762Z,63.00
2018-06-05T13:49:18.733Z,62.30
2018-06-05T13:54:22.690Z,59.40
2018-06-05T13:59:26.654Z,56.60
2018-06-05T14:04:30.622Z,56.10
2018-06-05T14:09:34.592Z,55.60
2018-06-05T14:14:38.549Z,55.60
2018-06-05T14:19:42.524Z,54.70
2018-06-05T14:24:46.487Z,53.90
2018-06-05T14:29:50.437Z,54.80
2018-06-05T14:34:54.384Z,55.20
2018-06-05T14:39:58.366Z,54.90
2018-06-05T14:50:05.965Z,53.10
2018-06-05T14:55:10.023Z,53.10
2018-06-05T15:00:13.994Z,54.50
2018-06-05T15:05:17.982Z,55.10
2018-06-05T15:10:22.009Z,56.00
2018-06-05T15:15:25.971Z,54.50
2018-06-05T15:20:29.924Z,54.20
2018-06-05T15:25:33.887Z,54.30
2018-06-05T15:35:41.647Z,55.70
2018-06-05T15:40:45.654Z,55.90
2018-06-05T15:45:49.643Z,56.50
2018-06-05T15:50:54.426Z,57.40
2018-06-05T15:55:58.405Z,58.10
2018-06-05T16:01:02.413Z,57.60
2018-06-05T16:06:06.347Z,57.60
2018-06-05T16:11:10.362Z,58.00
2018-06-05T16:16:14.345Z,57.20
2018-06-05T16:26:21.927Z,57.90
2018-06-05T16:31:25.865Z,58.00
2018-06-05T16:36:29.827Z,57.60
2018-06-05T16:46:38.289Z,59.00
2018-06-05T16:51:42.276Z,58.00
2018-06-05T16:56:46.418Z,58.30
2018-06-05T17:01:50.391Z,62.00
2018-06-05T17:06:54.379Z,66.20
2018-06-05T17:11:58.343Z,67.20
2018-06-05T17:17:02.299Z,67.60
2018-06-05T17:22:06.307Z,68.60
2018-06-05T17:27:10.284Z,70.30
2018-06-05T17:32:14.279Z,72.00
2018-06-05T17:37:18.304Z,74.10
2018-06-05T17:42:22.903Z,73.50
2018-06-05T17:47:26.970Z,72.10
2018-06-05T17:52:30.929Z,72.80
2018-06-05T17:57:35.170Z,74.90
2018-06-05T18:02:39.154Z,76.70
2018-06-05T18:07:43.156Z,75.50
2018-06-05T18:12:47.115Z,75.40
2018-06-05T18:17:51.079Z,76.70
2018-06-05T18:22:55.059Z,76.90
2018-06-05T18:27:59.042Z,77.80
2018-06-05T18:33:03.038Z,78.40
2018-06-05T18:38:07.103Z,79.50
2018-06-05T18:43:11.195Z,80.60
2018-06-05T18:53:18.803Z,83.80
2018-06-05T18:58:22.959Z,82.50
2018-06-05T19:08:30.563Z,83.90
2018-06-05T19:13:34.547Z,85.00
2018-06-05T19:18:38.530Z,86.00
2018-06-05T19:23:42.545Z,86.30
2018-06-05T19:28:46.530Z,87.00
2018-06-05T19:33:50.518Z,87.60
2018-06-05T19:38:54.504Z,88.10
2018-06-05T19:43:59.248Z,86.90
2018-06-05T19:49:03.244Z,89.00
2018-06-05T19:54:07.202Z,87.40
2018-06-05T19:59:11.210Z,87.80
2018-06-05T20:04:15.218Z,87.00
2018-06-05T20:09:19.188Z,88.90
2018-06-05T20:14:23.224Z,89.40
2018-06-05T20:19:27.246Z,91.30
2018-06-05T20:24:31.258Z,90.60
2018-06-05T20:29:35.397Z,89.90
2018-06-05T20:34:39.396Z,88.50
2018-06-05T20:39:43.391Z,89.00
2018-06-05T20:44:47.398Z,88.10
2018-06-05T20:54:54.997Z,88.30
2018-06-05T20:59:58.987Z,88.40
2018-06-05T21:10:06.650Z,88.60
2018-06-05T21:15:10.658Z,88.90
2018-06-05T21:20:14.636Z,89.50
2018-06-05T21:25:18.602Z,89.90
2018-06-05T21:30:22.619Z,89.80
2018-06-05T21:35:26.715Z,90.20
2018-06-05T21:40:30.687Z,90.30
2018-06-05T21:45:34.633Z,90.40
2018-06-05T21:50:38.585Z,90.60
2018-06-05T21:55:42.591Z,90.60
2018-06-05T22:00:46.556Z,90.60
2018-06-05T22:05:50.540Z,90.70
2018-06-05T22:10:54.506Z,90.80
2018-06-05T22:15:58.474Z,91.50
2018-06-05T22:21:02.435Z,91.50
2018-06-05T22:26:06.380Z,91.50
2018-06-05T22:31:10.343Z,91.80
2018-06-05T22:36:14.344Z,91.80
2018-06-05T22:46:21.899Z,92.00
2018-06-05T22:51:25.873Z,92.00
2018-06-05T22:56:29.838Z,92.20
2018-06-05T23:01:33.834Z,92.20
2018-06-05T23:06:37.783Z,92.10
2018-06-05T23:11:41.746Z,92.20
2018-06-05T23:16:46.007Z,92.30
2018-06-05T23:21:49.951Z,92.60
2018-06-05T23:26:53.904Z,92.80
2018-06-05T23:31:57.842Z,92.80
2018-06-05T23:37:01.944Z,93.00
2018-06-05T23:42:05.922Z,93.10
2018-06-05T23:47:09.890Z,93.20
2018-06-05T23:57:17.490Z,93.40
